Launceston Airport


Codes: YMLT/LST
Name: Launceston Airport
City: Launceston
Country: Australia
Elevation: 562 ft.
Website:
Wikipedia:

Photos at Launceston Airport


   Photos courtesy of SpottingLog. You can add your own sightings and photos by signing up for a free trial today.



No photos found.

Weather at Launceston Airport


Time (UTC)DescriptionTempratureWindCloud coverageVisibilityPressureHumidity
16-Jun-2024 03:00Broken Clouds9°C13 mph, S60%10000m1019hPa63%
16-Jun-2024 06:00Broken Clouds9°C13 mph, S80%10000m1020hPa63%
16-Jun-2024 09:00Overcast Clouds8°C13 mph, S99%10000m1022hPa70%
16-Jun-2024 12:00Overcast Clouds7°C11 mph, S100%10000m1023hPa72%
16-Jun-2024 15:00Overcast Clouds8°C11 mph, SE100%10000m1022hPa69%
16-Jun-2024 18:00Overcast Clouds7°C9 mph, SE100%10000m1022hPa78%
16-Jun-2024 21:00Overcast Clouds7°C9 mph, SE99%10000m1023hPa70%
17-Jun-2024 00:00Overcast Clouds9°C9 mph, S100%10000m1023hPa64%
17-Jun-2024 03:00Overcast Clouds10°C9 mph, SE95%10000m1022hPa56%
17-Jun-2024 06:00Overcast Clouds10°C9 mph, SE94%10000m1021hPa54%
17-Jun-2024 09:00Overcast Clouds7°C4 mph, SE92%10000m1023hPa70%
17-Jun-2024 12:00Overcast Clouds6°C2 mph, S89%10000m1023hPa76%
17-Jun-2024 15:00Scattered Clouds3°C0 mph, SE42%10000m1022hPa85%
17-Jun-2024 18:00Scattered Clouds3°C0 mph, NE41%10000m1022hPa82%
17-Jun-2024 21:00Broken Clouds2°C0 mph, E69%10000m1022hPa87%
18-Jun-2024 00:00Scattered Clouds6°C2 mph, S38%10000m1022hPa71%
18-Jun-2024 03:00Clear Sky10°C4 mph, S4%10000m1019hPa58%
18-Jun-2024 06:00Clear Sky8°C4 mph, SE4%10000m1018hPa66%
18-Jun-2024 09:00Clear Sky4°C2 mph, SE2%10000m1019hPa84%
18-Jun-2024 12:00Clear Sky2°C2 mph, SE4%10000m1018hPa88%
18-Jun-2024 15:00Clear Sky1°C2 mph, SE6%10000m1017hPa88%
18-Jun-2024 18:00Clear Sky1°C2 mph, SE4%10000m1016hPa90%
18-Jun-2024 21:00Clear Sky0°C2 mph, SE1%10000m1016hPa91%
19-Jun-2024 00:00Clear Sky5°C4 mph, S0%10000m1015hPa68%
19-Jun-2024 03:00Clear Sky9°C4 mph, S0%10000m1013hPa53%
19-Jun-2024 06:00Clear Sky7°C2 mph, SE0%10000m1011hPa64%
19-Jun-2024 09:00Clear Sky2°C2 mph, NE5%10000m1012hPa83%
19-Jun-2024 12:00Few Clouds1°C2 mph, E11%10000m1013hPa89%
19-Jun-2024 15:00Scattered Clouds0°C2 mph, SE35%10000m1012hPa91%
19-Jun-2024 18:00Few Clouds-0°C2 mph, SE23%10000m1012hPa92%
19-Jun-2024 21:00Scattered Clouds-0°C2 mph, SE37%10000m1012hPa92%
20-Jun-2024 00:00Broken Clouds5°C4 mph, S60%10000m1012hPa70%
20-Jun-2024 03:00Scattered Clouds10°C4 mph, S47%10000m1010hPa51%
20-Jun-2024 06:00Scattered Clouds7°C0 mph, SE27%10000m1010hPa65%
20-Jun-2024 09:00Clear Sky2°C2 mph, E5%10000m1012hPa81%
20-Jun-2024 12:00Clear Sky1°C2 mph, SE2%10000m1013hPa87%
20-Jun-2024 15:00Clear Sky0°C2 mph, SE0%10000m1014hPa89%
20-Jun-2024 18:00Clear Sky0°C4 mph, SE0%10000m1015hPa88%
20-Jun-2024 21:00Clear Sky1°C4 mph, SE7%10000m1017hPa86%
21-Jun-2024 00:00Scattered Clouds6°C4 mph, S32%10000m1020hPa70%